YO3LAW-13 Weather Reports


Display with metric or nautical units.
time (UTC)temp
F
wind
direction
speed
MPH
gust
MPH
rain 1hr
in
rain 24hr
in
rain mn
in
humidity
%
barometer
mb
20260506134547 79 284 0.0 1.0 0.00 0.00 0.00 35 1003.3
20260506133547 79 56 1.0 3.0 0.00 0.00 0.00 35 1003.4
20260506132547 80 54 2.0 2.0 0.00 0.00 0.00 34 1003.7
20260506131547 80 314 0.0 2.0 0.00 0.00 0.00 35 1003.6
20260506130547 80 209 0.0 2.0 0.00 0.00 0.00 35 1003.7
20260506125547 80 206 4.0 4.0 0.00 0.00 0.00 34 1003.7
20260506124547 81 355 0.0 2.0 0.00 0.00 0.00 35 1003.7
20260506123547 80 323 0.0 3.0 0.00 0.00 0.00 33 1003.9
20260506122547 81 126 0.0 1.0 0.00 0.00 0.00 34 1003.7
20260506121547 79 198 1.0 2.0 0.00 0.00 0.00 35 1004.1
20260506120547 78 59 0.0 2.0 0.00 0.00 0.00 36 1004.1
20260506115547 79 133 3.0 3.0 0.00 0.00 0.00 35 1004.3
20260506114547 80 227 0.0 2.0 0.00 0.00 0.00 33 1004.3
20260506113547 80 278 1.0 4.0 0.00 0.00 0.00 34 1004.6
20260506112547 79 318 1.0 2.0 0.00 0.00 0.00 35 1004.4
20260506111547 78 106 0.0 3.0 0.00 0.00 0.00 36 1004.4
20260506110547 79 315 0.0 3.0 0.00 0.00 0.00 35 1004.7
20260506105547 79 85 0.0 2.0 0.00 0.00 0.00 35 1004.6
20260506104547 78 55 0.0 2.0 0.00 0.00 0.00 35 1004.5
20260506103547 77 249 0.0 1.0 0.00 0.00 0.00 37 1004.6
20260506102547 77 325 0.0 2.0 0.00 0.00 0.00 37 1004.8
20260506101547 77 183 0.0 2.0 0.00 0.00 0.00 37 1004.7
20260506100547 78 118 1.0 3.0 0.00 0.00 0.00 35 1004.8
20260506095547 78 315 0.0 2.0 0.00 0.00 0.00 35 1004.8
20260506094547 77 320 2.0 2.0 0.00 0.00 0.00 35 1004.9
20260506093547 76 236 0.0 2.0 0.00 0.00 0.00 35 1005.0
20260506092547 76 39 1.0 2.0 0.00 0.00 0.00 36 1005.0
20260506091547 76 69 1.0 3.0 0.00 0.00 0.00 35 1005.1
20260506090547 76 190 0.0 3.0 0.00 0.00 0.00 35 1005.1
20260506085547 76 339 0.0 2.0 0.00 0.00 0.00 37 1004.8
20260506084547 75 75 0.0 2.0 0.00 0.00 0.00 35 1005.0
20260506083547 75 252 0.0 3.0 0.00 0.00 0.00 34 1005.0
20260506082547 74 158 0.0 2.0 0.00 0.00 0.00 37 1005.0
20260506081547 74 195 0.0 2.0 0.00 0.00 0.00 36 1005.1
20260506080547 73 302 0.0 2.0 0.00 0.00 0.00 41 1005.2
20260506072547 70 44 0.0 3.0 0.00 0.00 0.00 45 1005.0
20260506071547 69 309 0.0 2.0 0.00 0.00 0.00 48 1004.9
20260506070547 68 243 0.0 1.0 0.00 0.00 0.00 50 1005.0
20260506061547 64 0 0.0 1.0 0.00 0.00 0.00 53 1005.0
20260506060547 62 24 1.0 2.0 0.00 0.00 0.00 54 1005.0
20260506050547 55 11 2.0 3.0 0.00 0.00 0.00 67 1005.0
20260506044547 55 4 2.0 3.0 0.00 0.00 0.00 68 1005.0
20260506043547 54 65 0.0 3.0 0.00 0.00 0.00 70 1004.6
20260506042547 53 347 2.0 3.0 0.00 0.00 0.00 70 1004.7
20260506041547 52 8 2.0 5.0 0.00 0.00 0.00 72 1004.8
20260506040547 51 285 0.0 4.0 0.00 0.00 0.00 75 1004.5
20260506035547 50 88 3.0 4.0 0.00 0.00 0.00 78 1004.4
20260506034547 49 342 3.0 3.0 0.00 0.00 0.00 83 1004.5
20260506033547 49 313 1.0 3.0 0.00 0.00 0.00 85 1004.4
20260506032547 49 23 2.0 4.0 0.00 0.00 0.00 85 1004.4
20260506031547 49 339 4.0 4.0 0.00 0.00 0.00 83 1004.4
20260506030547 50 342 2.0 5.0 0.00 0.00 0.00 83 1004.3
20260506025547 50 358 1.0 3.0 0.00 0.00 0.00 81 1004.3
20260506024547 50 328 2.0 5.0 0.00 0.00 0.00 80 1004.1
20260506023547 51 355 3.0 5.0 0.00 0.00 0.00 78 1004.1
20260506022547 51 12 0.0 4.0 0.00 0.00 0.00 77 1004.0
20260506021547 51 169 0.0 5.0 0.00 0.00 0.00 76 1004.1
20260506020547 52 42 1.0 5.0 0.00 0.00 0.00 76 1004.1
20260506015547 52 222 2.0 5.0 0.00 0.00 0.00 75 1003.9
20260506014547 52 44 2.0 3.0 0.00 0.00 0.00 74 1004.2
20260506013548 53 25 4.0 6.0 0.00 0.00 0.00 74 1004.0
20260506012547 53 200 2.0 4.0 0.00 0.00 0.00 73 1004.1
20260506011548 53 115 3.0 4.0 0.00 0.00 0.00 74 1004.2
20260506010547 53 91 4.0 4.0 0.00 0.00 0.00 74 1003.9
20260506005547 54 147 2.0 4.0 0.00 0.00 0.00 74 1004.1
20260506004547 54 92 3.0 5.0 0.00 0.00 0.00 74 1004.0
20260506003547 55 49 1.0 3.0 0.00 0.00 0.00 74 1003.9
20260506002547 55 346 2.0 6.0 0.00 0.00 0.00 72 1004.0
20260506001547 56 178 1.0 4.0 0.00 0.00 0.00 71 1003.9
20260506000547 56 12 1.0 3.0 0.00 0.00 0.00 70 1003.9
20260505235547 56 137 1.0 4.0 0.00 0.00 0.00 70 1003.8
20260505234547 57 142 0.0 0.0 0.00 0.00 0.00 68 1003.6
20260505233547 57 44 0.0 0.0 0.00 0.00 0.00 68 1003.7
20260505232547 57 81 0.0 0.0 0.00 0.00 0.00 68 1003.8
20260505231547 56 142 0.0 2.0 0.00 0.00 0.00 73 1003.6
20260505230547 56 44 0.0 0.0 0.00 0.00 0.00 79 1004.1
20260505225547 57 333 0.0 0.0 0.00 0.00 0.00 78 1003.8
20260505224547 57 44 0.0 0.0 0.00 0.00 0.00 74 1003.9
20260505223547 57 44 0.0 0.0 0.00 0.00 0.00 75 1003.9
20260505222547 58 212 0.0 0.0 0.00 0.00 0.00 70 1003.9
20260505221547 58 37 0.0 0.0 0.00 0.00 0.00 69 1004.1
20260505220547 58 230 0.0 0.0 0.00 0.00 0.00 68 1003.9
20260505215547 59 343 0.0 0.0 0.00 0.00 0.00 61 1004.0
20260505214547 59 142 0.0 0.0 0.00 0.00 0.00 58 1003.9
20260505213547 60 29 0.0 0.0 0.00 0.00 0.00 58 1003.8
20260505212547 59 325 0.0 1.0 0.00 0.00 0.00 60 1003.8
20260505211547 59 124 0.0 0.0 0.00 0.00 0.00 65 1003.9
20260505210547 59 44 0.0 0.0 0.00 0.00 0.00 66 1003.8
20260505205547 59 219 0.0 0.0 0.00 0.00 0.00 67 1003.9
20260505204547 59 297 0.0 0.0 0.00 0.00 0.00 68 1003.7
20260505203547 60 44 0.0 0.0 0.00 0.00 0.00 66 1004.0
20260505202547 61 44 0.0 0.0 0.00 0.00 0.00 64 1003.8
20260505201547 62 62 0.0 0.0 0.00 0.00 0.00 62 1003.7
20260505200547 62 44 0.0 0.0 0.00 0.00 0.00 58 1003.7
20260505195547 64 129 0.0 0.0 0.00 0.00 0.00 55 1003.8
20260505194547 65 230 0.0 0.0 0.00 0.00 0.00 51 1003.8
20260505193547 64 315 0.0 1.0 0.00 0.00 0.00 51 1003.8
20260505192547 65 53 0.0 0.0 0.00 0.00 0.00 51 1003.5
20260505191547 65 135 0.0 0.0 0.00 0.00 0.00 50 1003.5
20260505190547 65 25 0.0 1.0 0.00 0.00 0.00 52 1003.8
20260505185547 65 315 0.0 0.0 0.00 0.00 0.00 52 1003.6
20260505184547 65 230 0.0 0.0 0.00 0.00 0.00 51 1003.7
20260505183547 65 110 0.0 0.0 0.00 0.00 0.00 52 1003.5
20260505182547 65 44 0.0 0.0 0.00 0.00 0.00 53 1003.6
20260505181547 66 264 0.0 0.0 0.00 0.00 0.00 53 1003.6
20260505180547 66 315 0.0 0.0 0.00 0.00 0.00 55 1003.5
20260505175547 66 255 0.0 0.0 0.00 0.00 0.00 56 1003.3
20260505174547 66 315 0.0 0.0 0.00 0.00 0.00 54 1003.3
20260505173547 67 44 0.0 0.0 0.00 0.00 0.00 53 1003.3
20260505172547 67 44 0.0 0.0 0.00 0.00 0.00 52 1003.1
20260505171547 68 229 0.0 0.0 0.00 0.00 0.00 52 1003.3
20260505170547 68 242 0.0 0.0 0.00 0.00 0.00 51 1003.2
20260505165547 69 135 0.0 0.0 0.00 0.00 0.00 51 1003.0
20260505164547 70 135 0.0 0.0 0.00 0.00 0.00 50 1003.3
20260505163547 70 326 0.0 0.0 0.00 0.00 0.00 49 1002.9
20260505162547 71 102 0.0 1.0 0.00 0.00 0.00 51 1003.1
20260505161547 71 135 0.0 0.0 0.00 0.00 0.00 50 1003.1
20260505160547 71 62 0.0 0.0 0.00 0.00 0.00 48 1003.2
20260505152547 73 55 0.0 1.0 0.00 0.00 0.00 44 1003.1
20260505151547 74 131 0.0 2.0 0.00 0.00 0.00 43 1003.4
20260505150547 74 111 0.0 2.0 0.00 0.00 0.00 42 1003.5
20260505140547 80 179 0.0 2.0 0.00 0.00 0.00 34 1003.4